createdAt,value
2019-02-16T00:01:58.702Z,1.60
2019-02-16T00:04:00.089Z,1.60
2019-02-16T00:06:01.450Z,1.60
2019-02-16T00:08:02.874Z,1.60
2019-02-16T00:10:06.133Z,1.60
2019-02-16T00:12:07.491Z,1.60
2019-02-16T00:14:08.921Z,1.60
2019-02-16T00:16:10.391Z,1.70
2019-02-16T00:18:11.781Z,1.70
2019-02-16T00:20:13.174Z,1.70
2019-02-16T00:22:14.542Z,1.70
2019-02-16T00:24:15.936Z,1.70
2019-02-16T00:26:17.323Z,1.70
2019-02-16T00:28:18.721Z,1.70
2019-02-16T00:30:20.115Z,1.70
2019-02-16T00:32:21.476Z,1.70
2019-02-16T00:34:22.883Z,1.70
2019-02-16T00:36:24.252Z,1.60
2019-02-16T00:38:25.647Z,1.60
2019-02-16T00:40:27.031Z,1.60
2019-02-16T00:42:28.403Z,1.50
2019-02-16T00:44:30.369Z,1.60
2019-02-16T00:46:32.015Z,1.60
2019-02-16T00:48:33.423Z,1.60
2019-02-16T00:50:34.778Z,1.60
2019-02-16T00:52:36.399Z,1.70
2019-02-16T00:54:37.775Z,1.70
2019-02-16T00:56:39.133Z,1.70
2019-02-16T00:58:40.539Z,1.70
2019-02-16T01:00:41.891Z,1.80
2019-02-16T01:02:43.247Z,1.70
2019-02-16T01:04:44.660Z,1.70
2019-02-16T01:06:46.033Z,1.60
2019-02-16T01:08:47.407Z,1.60
2019-02-16T01:10:48.803Z,1.60
2019-02-16T01:12:50.406Z,1.50
2019-02-16T01:14:51.802Z,1.50
2019-02-16T01:16:53.185Z,1.50
2019-02-16T01:18:54.628Z,1.50
2019-02-16T01:20:56.331Z,1.50
2019-02-16T01:22:57.919Z,1.50
2019-02-16T01:24:59.296Z,1.50
2019-02-16T01:27:00.657Z,1.50
2019-02-16T01:29:02.090Z,1.50
2019-02-16T01:31:03.438Z,1.40
2019-02-16T01:33:04.957Z,1.40
2019-02-16T01:35:06.678Z,1.50
2019-02-16T01:37:08.242Z,1.50
2019-02-16T01:39:09.685Z,1.50
2019-02-16T01:41:11.081Z,1.50
2019-02-16T01:43:12.455Z,1.50
2019-02-16T01:45:13.816Z,1.50
2019-02-16T01:47:15.208Z,1.40
2019-02-16T01:49:16.591Z,1.40
2019-02-16T01:51:17.981Z,1.50
2019-02-16T01:53:19.375Z,1.50
2019-02-16T01:55:20.833Z,1.50
2019-02-16T01:57:22.208Z,1.50
2019-02-16T01:59:23.957Z,1.40
2019-02-16T02:01:25.441Z,1.40
2019-02-16T02:03:26.817Z,1.40
2019-02-16T02:05:28.213Z,1.30
2019-02-16T02:07:29.595Z,1.30
2019-02-16T02:09:30.985Z,1.30
2019-02-16T02:11:32.390Z,1.30
2019-02-16T02:13:33.785Z,1.30
2019-02-16T02:15:35.137Z,1.40
2019-02-16T02:17:36.515Z,1.30
2019-02-16T02:19:37.871Z,1.30
2019-02-16T02:21:41.370Z,1.30
2019-02-16T02:23:42.519Z,1.30
2019-02-16T02:25:43.918Z,1.30
2019-02-16T02:27:45.318Z,1.30
2019-02-16T02:29:46.668Z,1.30
2019-02-16T02:31:48.015Z,1.20
2019-02-16T02:33:49.403Z,1.20
2019-02-16T02:35:50.752Z,1.20
2019-02-16T02:37:52.090Z,1.20
2019-02-16T02:39:53.489Z,1.20
2019-02-16T02:41:54.838Z,1.20
2019-02-16T02:43:56.249Z,1.10
2019-02-16T02:45:57.583Z,1.10
2019-02-16T02:47:58.971Z,1.10
2019-02-16T02:50:00.322Z,1.10
2019-02-16T02:52:01.914Z,1.10
2019-02-16T02:54:03.301Z,1.10
2019-02-16T02:56:04.838Z,1.10
2019-02-16T02:58:06.239Z,1.10
2019-02-16T03:00:08.779Z,1.10
2019-02-16T03:02:10.180Z,1.10
2019-02-16T03:04:11.904Z,1.10
2019-02-16T03:06:13.253Z,1.10
2019-02-16T03:08:14.612Z,1.10
2019-02-16T03:10:15.983Z,1.10
2019-02-16T03:12:17.350Z,1.10
2019-02-16T03:14:18.723Z,1.10
2019-02-16T03:16:20.110Z,1.10
2019-02-16T03:18:21.460Z,1.10
2019-02-16T03:20:22.846Z,1.10
2019-02-16T03:22:29.900Z,1.10
2019-02-16T03:24:31.246Z,1.10
2019-02-16T03:26:40.969Z,1.10
2019-02-16T03:28:48.077Z,1.10
2019-02-16T03:31:01.320Z,1.10
2019-02-16T03:33:14.268Z,1.10
2019-02-16T03:35:27.388Z,1.10
2019-02-16T03:37:55.459Z,1.10
2019-02-16T03:39:56.798Z,1.10
2019-02-16T03:41:58.142Z,1.10
2019-02-16T03:43:59.528Z,1.10
2019-02-16T03:46:00.897Z,1.10
2019-02-16T03:48:02.309Z,1.20
2019-02-16T03:50:07.232Z,1.20
2019-02-16T03:52:14.034Z,1.20
2019-02-16T03:54:11.979Z,1.20
2019-02-16T03:56:13.341Z,1.20
2019-02-16T03:58:14.728Z,1.20
2019-02-16T04:00:16.100Z,1.10
2019-02-16T04:02:17.523Z,1.10
2019-02-16T04:04:18.868Z,1.00
2019-02-16T04:06:20.216Z,1.00
2019-02-16T04:08:21.619Z,1.00
2019-02-16T04:10:22.980Z,1.00
2019-02-16T04:12:24.371Z,1.00
2019-02-16T04:14:25.728Z,0.90
2019-02-16T04:16:27.116Z,0.90
2019-02-16T04:18:28.479Z,0.90
2019-02-16T04:20:30.910Z,1.00
2019-02-16T04:22:32.262Z,0.90
2019-02-16T04:24:33.652Z,0.90
2019-02-16T04:26:35.060Z,1.00
2019-02-16T04:28:36.429Z,1.00
2019-02-16T04:30:37.810Z,1.00
2019-02-16T04:32:39.178Z,1.00
2019-02-16T04:34:40.539Z,1.10
2019-02-16T04:36:41.926Z,1.10
2019-02-16T04:38:43.323Z,1.10
2019-02-16T04:40:44.688Z,1.10
2019-02-16T04:42:46.051Z,1.10
2019-02-16T04:44:47.458Z,1.10
2019-02-16T04:46:49.297Z,1.10
2019-02-16T04:48:50.653Z,1.10
2019-02-16T04:50:52.061Z,1.10
2019-02-16T04:52:53.417Z,1.10
2019-02-16T04:54:54.801Z,1.10
2019-02-16T04:56:56.158Z,1.10
2019-02-16T04:58:57.525Z,1.10
2019-02-16T05:00:58.913Z,1.20
2019-02-16T05:03:00.281Z,1.20
2019-02-16T05:05:01.640Z,1.20
2019-02-16T05:07:03.037Z,1.20
2019-02-16T05:09:06.297Z,1.20
2019-02-16T05:11:07.679Z,1.20
2019-02-16T05:13:09.113Z,1.20
2019-02-16T05:15:10.479Z,1.20
2019-02-16T05:17:11.914Z,1.20
2019-02-16T05:19:13.307Z,1.20
2019-02-16T05:21:14.674Z,1.20
2019-02-16T05:23:16.141Z,1.40
2019-02-16T05:25:17.540Z,1.40
2019-02-16T05:27:18.895Z,1.40
2019-02-16T05:29:20.299Z,1.50
2019-02-16T05:31:21.671Z,1.50
2019-02-16T05:33:23.038Z,1.50
2019-02-16T05:35:24.626Z,1.60
2019-02-16T05:37:25.994Z,1.70
2019-02-16T05:39:27.360Z,1.70
2019-02-16T05:41:28.738Z,1.60
2019-02-16T05:43:30.187Z,1.60
2019-02-16T05:45:31.556Z,1.50
2019-02-16T05:47:32.917Z,1.60
2019-02-16T05:49:34.302Z,1.60
2019-02-16T05:51:35.659Z,1.50
2019-02-16T05:53:37.009Z,1.40
2019-02-16T05:55:38.418Z,1.40
2019-02-16T05:57:40.956Z,1.40
2019-02-16T05:59:42.308Z,1.50
2019-02-16T06:01:53.217Z,1.40
2019-02-16T06:03:47.108Z,1.40
2019-02-16T06:05:48.468Z,1.70
2019-02-16T06:07:49.836Z,1.90
2019-02-16T06:09:51.236Z,1.90
2019-02-16T06:11:52.654Z,1.90
2019-02-16T06:13:54.059Z,1.80
2019-02-16T06:15:55.828Z,1.80
2019-02-16T06:17:57.222Z,1.80
2019-02-16T06:19:58.602Z,1.90
2019-02-16T06:22:00.007Z,1.90
2019-02-16T06:24:01.422Z,2.00
2019-02-16T06:26:02.814Z,2.00
2019-02-16T06:28:04.198Z,2.10
2019-02-16T06:30:07.519Z,2.00
2019-02-16T06:32:08.870Z,2.00
2019-02-16T06:34:10.273Z,1.90
2019-02-16T06:36:13.562Z,1.90
2019-02-16T06:38:14.957Z,2.00
2019-02-16T06:40:16.333Z,2.10
2019-02-16T06:42:17.707Z,2.10
2019-02-16T06:44:19.100Z,2.20
2019-02-16T06:46:20.479Z,2.30
2019-02-16T06:48:21.939Z,2.30
2019-02-16T06:50:23.347Z,2.50
2019-02-16T06:52:24.781Z,2.60
2019-02-16T06:54:26.158Z,2.70
2019-02-16T06:56:35.121Z,2.70
2019-02-16T06:58:36.460Z,2.80
2019-02-16T07:00:37.861Z,2.70
2019-02-16T07:02:39.287Z,2.80
2019-02-16T07:04:40.659Z,2.90
2019-02-16T07:06:42.134Z,3.00
2019-02-16T07:08:44.265Z,3.10
2019-02-16T07:10:45.841Z,3.10
2019-02-16T07:12:47.293Z,3.10
2019-02-16T07:14:48.684Z,3.10
2019-02-16T07:17:00.808Z,3.10
2019-02-16T07:19:04.121Z,3.20
2019-02-16T07:21:05.522Z,3.20
2019-02-16T07:23:06.876Z,3.20
2019-02-16T07:25:08.303Z,3.10
2019-02-16T07:27:09.722Z,3.20
2019-02-16T07:29:11.119Z,3.30
2019-02-16T07:31:12.806Z,3.30
2019-02-16T07:33:14.164Z,3.30
2019-02-16T07:35:15.540Z,3.30
2019-02-16T07:37:17.160Z,3.40
2019-02-16T07:39:18.552Z,3.50
2019-02-16T07:41:19.920Z,3.60
2019-02-16T07:43:39.823Z,3.60
2019-02-16T07:45:51.968Z,3.70
2019-02-16T07:48:07.342Z,3.90
2019-02-16T07:50:10.693Z,4.00
2019-02-16T07:52:23.098Z,4.00
2019-02-16T07:54:28.407Z,4.10
2019-02-16T07:59:46.173Z,4.30
2019-02-16T08:02:13.776Z,4.60
2019-02-16T08:04:34.020Z,4.60
2019-02-16T08:06:37.330Z,4.70
2019-02-16T08:08:49.518Z,4.70
2019-02-16T08:10:55.812Z,4.80
2019-02-16T08:13:01.997Z,4.90
2019-02-16T08:15:15.572Z,5.00
2019-02-16T08:17:35.862Z,5.10
2019-02-16T08:19:54.349Z,5.20
2019-02-16T08:21:57.622Z,5.20
2019-02-16T08:24:03.696Z,5.30
2019-02-16T08:26:06.936Z,5.30
2019-02-16T08:28:10.210Z,5.40
2019-02-16T08:30:13.660Z,5.50
2019-02-16T08:32:19.925Z,5.60
2019-02-16T08:34:26.070Z,5.60
2019-02-16T08:36:35.431Z,5.70
2019-02-16T08:38:57.000Z,5.70
2019-02-16T08:41:03.102Z,5.80
2019-02-16T08:43:09.319Z,6.00
2019-02-16T08:45:15.502Z,6.00
2019-02-16T08:47:24.971Z,6.10
2019-02-16T08:49:33.955Z,6.30
2019-02-16T08:51:37.242Z,6.30
2019-02-16T08:53:49.627Z,6.40
2019-02-16T08:55:51.621Z,6.50
2019-02-16T08:58:01.005Z,6.60
2019-02-16T09:00:18.705Z,6.70
2019-02-16T09:02:27.925Z,6.90
2019-02-16T09:04:31.208Z,7.00
2019-02-16T09:06:38.198Z,7.10
2019-02-16T09:08:50.564Z,7.20
2019-02-16T09:11:06.292Z,7.30
2019-02-16T09:13:09.515Z,7.40
2019-02-16T09:15:12.959Z,7.50
2019-02-16T09:17:19.065Z,7.60
2019-02-16T09:19:40.699Z,7.70
2019-02-16T09:21:55.794Z,7.90
2019-02-16T09:24:08.307Z,7.90
2019-02-16T09:26:14.735Z,8.00
2019-02-16T09:28:34.761Z,8.10
2019-02-16T09:30:47.240Z,8.20
2019-02-16T09:32:50.614Z,8.40
2019-02-16T09:35:00.261Z,8.50
2019-02-16T09:37:03.582Z,8.70
2019-02-16T09:39:16.513Z,8.80
2019-02-16T09:41:19.792Z,8.90
2019-02-16T09:43:41.305Z,9.10
2019-02-16T09:45:59.624Z,9.20
2019-02-16T09:48:02.910Z,9.40
2019-02-16T09:50:22.188Z,9.50
2019-02-16T09:52:42.395Z,9.70
2019-02-16T09:55:02.252Z,9.80
2019-02-16T09:57:17.894Z,10.00
2019-02-16T09:59:24.134Z,10.20
2019-02-16T10:01:27.485Z,10.20
2019-02-16T10:03:30.799Z,10.30
2019-02-16T10:05:34.067Z,10.50
2019-02-16T10:07:49.635Z,10.60
2019-02-16T10:10:01.984Z,10.80
2019-02-16T10:12:05.277Z,10.90
2019-02-16T10:14:14.570Z,11.00
2019-02-16T10:16:20.827Z,11.10
2019-02-16T10:18:24.100Z,11.20
2019-02-16T10:20:42.351Z,11.30
2019-02-16T10:22:51.649Z,11.40
2019-02-16T10:25:11.664Z,11.40
2019-02-16T10:27:14.945Z,11.50
2019-02-16T10:29:18.255Z,11.70
2019-02-16T10:31:39.748Z,11.80
2019-02-16T10:33:45.655Z,11.90
2019-02-16T10:35:58.155Z,12.00
2019-02-16T10:38:18.073Z,12.10
2019-02-16T10:40:27.256Z,12.20
2019-02-16T10:42:39.287Z,12.30
2019-02-16T10:44:45.481Z,12.40
2019-02-16T10:46:48.888Z,12.50
2019-02-16T10:48:54.813Z,12.60
2019-02-16T10:50:58.132Z,12.70
2019-02-16T10:53:01.397Z,12.90
2019-02-16T10:55:18.224Z,12.90
2019-02-16T10:57:36.442Z,13.00
2019-02-16T10:59:56.386Z,13.10
2019-02-16T11:01:59.993Z,13.20
2019-02-16T11:04:11.999Z,13.30
2019-02-16T11:06:21.298Z,13.30
2019-02-16T11:08:33.545Z,13.40
2019-02-16T11:10:38.711Z,13.50
2019-02-16T11:12:42.033Z,13.50
2019-02-16T11:14:45.315Z,13.50
2019-02-16T11:17:03.795Z,13.60
2019-02-16T11:19:07.087Z,13.60
2019-02-16T11:21:28.791Z,13.70
2019-02-16T11:23:32.087Z,13.60
2019-02-16T11:25:51.998Z,13.70
2019-02-16T11:27:55.260Z,13.70
2019-02-16T11:30:01.460Z,13.70
2019-02-16T11:32:04.721Z,13.70
2019-02-16T11:34:18.877Z,13.90
2019-02-16T11:36:31.069Z,14.00
2019-02-16T11:38:37.024Z,14.10
2019-02-16T11:40:40.282Z,14.10
2019-02-16T11:42:52.752Z,14.00
2019-02-16T11:45:10.978Z,14.00
2019-02-16T11:47:17.112Z,14.00
2019-02-16T11:49:20.458Z,14.00
2019-02-16T11:51:39.036Z,14.10
2019-02-16T11:54:00.692Z,14.10
2019-02-16T11:56:03.988Z,14.10
2019-02-16T11:58:16.460Z,14.20
2019-02-16T12:00:28.719Z,14.40
2019-02-16T12:02:39.698Z,14.60
2019-02-16T12:04:40.373Z,14.70
2019-02-16T12:06:49.513Z,14.80
2019-02-16T12:08:58.515Z,14.80
2019-02-16T12:11:04.499Z,14.90
2019-02-16T12:13:07.823Z,15.00
2019-02-16T12:15:11.118Z,14.90
2019-02-16T12:17:14.575Z,14.80
2019-02-16T12:19:34.673Z,14.80
2019-02-16T12:21:43.670Z,14.90
2019-02-16T12:23:49.859Z,14.90
2019-02-16T12:25:59.102Z,15.10
2019-02-16T12:28:10.413Z,15.20
2019-02-16T12:30:22.667Z,15.20
2019-02-16T12:32:40.968Z,15.20
2019-02-16T12:34:44.244Z,15.30
2019-02-16T12:36:47.562Z,15.40
2019-02-16T12:39:05.836Z,15.60
2019-02-16T12:41:09.156Z,15.50
2019-02-16T12:43:24.584Z,15.50
2019-02-16T12:45:50.969Z,15.40
2019-02-16T12:47:48.290Z,15.30
2019-02-16T12:49:54.208Z,15.40
2019-02-16T12:52:00.223Z,15.60
2019-02-16T12:54:20.313Z,15.80
2019-02-16T12:56:38.621Z,15.80
2019-02-16T12:58:42.013Z,15.90
2019-02-16T13:00:45.360Z,15.80
2019-02-16T13:02:51.347Z,15.90
2019-02-16T13:05:11.350Z,15.90
2019-02-16T13:07:23.318Z,15.90
2019-02-16T13:09:44.969Z,16.00
2019-02-16T13:11:48.263Z,16.10
2019-02-16T13:14:06.771Z,16.10
2019-02-16T13:16:26.469Z,16.10
2019-02-16T13:18:29.967Z,15.90
2019-02-16T13:20:33.243Z,15.90
2019-02-16T13:22:39.044Z,16.00
2019-02-16T13:24:45.258Z,16.10
2019-02-16T13:26:51.411Z,16.10
2019-02-16T13:29:00.404Z,16.00
2019-02-16T13:31:09.557Z,16.00
2019-02-16T13:33:16.351Z,16.00
2019-02-16T13:35:28.646Z,16.20
2019-02-16T13:37:50.193Z,16.30
2019-02-16T13:39:53.552Z,16.30
2019-02-16T13:42:02.579Z,16.30
2019-02-16T13:44:05.963Z,16.10
2019-02-16T13:46:21.763Z,16.10
2019-02-16T13:48:25.167Z,16.10
2019-02-16T13:50:31.471Z,16.20
2019-02-16T13:52:37.609Z,16.20
2019-02-16T13:54:40.885Z,16.30
2019-02-16T13:56:44.443Z,16.30
2019-02-16T13:58:50.695Z,16.40
2019-02-16T14:01:00.017Z,16.40
2019-02-16T14:03:03.341Z,16.40
2019-02-16T14:05:06.744Z,16.20
2019-02-16T14:07:10.235Z,16.20
2019-02-16T14:09:28.809Z,16.20
2019-02-16T14:11:35.115Z,16.30
2019-02-16T14:13:38.634Z,16.40
2019-02-16T14:15:41.970Z,16.50
2019-02-16T14:17:45.575Z,16.40
2019-02-16T14:19:46.953Z,16.30
2019-02-16T14:21:48.757Z,16.30
2019-02-16T14:23:50.937Z,16.20
2019-02-16T14:25:54.385Z,16.20
2019-02-16T14:27:56.898Z,16.20
2019-02-16T14:29:59.034Z,16.30
2019-02-16T14:32:00.604Z,16.20
2019-02-16T14:34:02.212Z,16.00
2019-02-16T14:36:03.771Z,16.00
2019-02-16T14:38:07.414Z,16.10
2019-02-16T14:40:09.158Z,16.00
2019-02-16T14:42:10.816Z,16.10
2019-02-16T14:44:12.898Z,16.10
2019-02-16T14:46:14.847Z,16.00
2019-02-16T14:48:19.202Z,15.90
2019-02-16T14:50:20.684Z,15.90
2019-02-16T14:52:22.238Z,15.90
2019-02-16T14:54:23.643Z,15.90
2019-02-16T14:56:25.028Z,15.90
2019-02-16T14:58:26.433Z,16.00
2019-02-16T15:00:27.819Z,15.90
2019-02-16T15:02:29.225Z,15.90
2019-02-16T15:04:31.144Z,15.90
2019-02-16T15:06:32.559Z,15.90
2019-02-16T15:08:33.946Z,15.90
2019-02-16T15:10:35.337Z,15.90
2019-02-16T15:12:36.715Z,15.80
2019-02-16T15:14:38.154Z,15.80
2019-02-16T15:16:39.515Z,15.90
2019-02-16T15:18:41.117Z,15.90
2019-02-16T15:20:42.478Z,15.80
2019-02-16T15:22:43.875Z,15.60
2019-02-16T15:24:45.324Z,15.50
2019-02-16T15:26:46.685Z,15.50
2019-02-16T15:28:48.045Z,15.50
2019-02-16T15:30:49.465Z,15.40
2019-02-16T15:32:50.843Z,15.30
2019-02-16T15:34:52.240Z,15.30
2019-02-16T15:36:53.617Z,15.30
2019-02-16T15:38:54.992Z,15.20
2019-02-16T15:40:56.421Z,15.20
2019-02-16T15:42:57.847Z,15.00
2019-02-16T15:44:59.257Z,14.90
2019-02-16T15:47:00.658Z,14.90
2019-02-16T15:49:02.090Z,14.80
2019-02-16T15:51:03.704Z,14.80
2019-02-16T15:53:05.317Z,14.80
2019-02-16T15:55:13.592Z,14.80
2019-02-16T15:57:15.396Z,14.70
2019-02-16T15:59:16.818Z,14.60
2019-02-16T16:01:18.217Z,14.30
2019-02-16T16:03:19.646Z,14.30
2019-02-16T16:05:21.006Z,14.00
2019-02-16T16:07:22.366Z,13.90
2019-02-16T16:09:28.776Z,13.80
2019-02-16T16:11:32.126Z,13.70
2019-02-16T16:13:35.386Z,13.50
2019-02-16T16:15:50.646Z,13.50
2019-02-16T16:17:56.800Z,13.40
2019-02-16T16:20:02.723Z,13.30
2019-02-16T16:22:08.706Z,13.10
2019-02-16T16:24:17.906Z,13.10
2019-02-16T16:26:39.519Z,13.00
2019-02-16T16:28:42.841Z,12.90
2019-02-16T16:30:46.119Z,12.80
2019-02-16T16:32:58.339Z,12.70
2019-02-16T16:35:04.317Z,12.60
2019-02-16T16:37:07.851Z,12.50
2019-02-16T16:39:14.063Z,12.40
2019-02-16T16:41:26.199Z,12.40
2019-02-16T16:43:32.342Z,12.30
2019-02-16T16:45:41.825Z,12.20
2019-02-16T16:47:49.951Z,12.00
2019-02-16T16:49:59.008Z,11.80
2019-02-16T16:52:04.978Z,11.80
2019-02-16T16:54:10.985Z,11.70
2019-02-16T16:56:16.955Z,11.60
2019-02-16T16:58:20.267Z,11.50
2019-02-16T17:00:23.554Z,11.40
2019-02-16T17:02:38.778Z,11.30
2019-02-16T17:04:50.985Z,11.10
2019-02-16T17:06:54.263Z,11.00
2019-02-16T17:09:03.555Z,10.90
2019-02-16T17:11:09.515Z,10.70
2019-02-16T17:13:25.015Z,10.50
2019-02-16T17:15:42.355Z,10.40
2019-02-16T17:17:48.527Z,10.30
2019-02-16T17:19:57.806Z,10.20
2019-02-16T17:22:07.046Z,10.10
2019-02-16T17:24:28.693Z,10.00
2019-02-16T17:26:37.838Z,9.80
2019-02-16T17:28:54.235Z,9.70
2019-02-16T17:30:57.515Z,9.60
2019-02-16T17:33:12.815Z,9.60
2019-02-16T17:35:16.162Z,9.50
2019-02-16T17:37:25.345Z,9.40
2019-02-16T17:39:28.700Z,9.20
2019-02-16T17:41:44.205Z,9.10
2019-02-16T17:43:53.416Z,9.10
2019-02-16T17:46:13.504Z,9.00
2019-02-16T17:48:33.394Z,8.90
2019-02-16T17:50:36.705Z,8.80
2019-02-16T17:52:51.993Z,8.50
2019-02-16T17:55:07.211Z,8.50
2019-02-16T17:57:10.603Z,8.40
2019-02-16T17:59:13.879Z,8.30
2019-02-16T18:01:23.467Z,8.20
2019-02-16T18:03:26.821Z,8.10
2019-02-16T18:05:30.115Z,8.00
2019-02-16T18:07:33.420Z,7.90
2019-02-16T18:09:49.033Z,7.70
2019-02-16T18:12:07.535Z,7.70
2019-02-16T18:14:10.822Z,7.60
2019-02-16T18:16:17.144Z,7.60
2019-02-16T18:18:20.416Z,7.50
2019-02-16T18:20:29.799Z,7.50
2019-02-16T18:22:35.788Z,7.50
2019-02-16T18:25:00.183Z,7.30
2019-02-16T18:27:21.734Z,7.30
2019-02-16T18:29:40.029Z,7.20
2019-02-16T18:31:46.042Z,7.20
2019-02-16T18:34:04.551Z,7.00
2019-02-16T18:36:07.893Z,6.90
2019-02-16T18:38:11.143Z,6.90
2019-02-16T18:40:14.527Z,6.80
2019-02-16T18:42:24.180Z,6.70
2019-02-16T18:44:27.458Z,6.70
2019-02-16T18:46:33.765Z,6.60
2019-02-16T18:48:52.348Z,6.60
2019-02-16T18:51:01.654Z,6.50
2019-02-16T18:53:05.023Z,6.40
2019-02-16T18:55:10.901Z,6.30
2019-02-16T18:57:16.229Z,6.40
2019-02-16T18:59:28.527Z,6.40
2019-02-16T19:01:34.445Z,6.30
2019-02-16T19:03:55.769Z,6.20
2019-02-16T19:06:14.368Z,6.10
2019-02-16T19:08:23.679Z,6.00
2019-02-16T19:10:26.961Z,6.00
2019-02-16T19:12:33.259Z,5.90
2019-02-16T19:14:54.886Z,5.80
2019-02-16T19:17:01.281Z,5.70
2019-02-16T19:19:16.638Z,5.60
2019-02-16T19:21:19.940Z,5.50
2019-02-16T19:23:26.130Z,5.50
2019-02-16T19:25:32.404Z,5.50
2019-02-16T19:27:41.816Z,5.50
2019-02-16T19:29:56.935Z,5.40
2019-02-16T19:32:00.214Z,5.40
2019-02-16T19:34:18.754Z,5.40
2019-02-16T19:36:22.039Z,5.30
2019-02-16T19:38:40.559Z,5.30
2019-02-16T19:40:46.841Z,5.30
2019-02-16T19:42:52.708Z,5.30
2019-02-16T19:45:04.835Z,5.20
2019-02-16T19:47:17.119Z,5.10
2019-02-16T19:49:23.344Z,5.10
2019-02-16T19:51:53.646Z,5.00
2019-02-16T19:54:14.932Z,4.80
2019-02-16T19:56:24.098Z,4.60
2019-02-16T19:58:27.416Z,4.60
2019-02-16T20:00:33.359Z,4.60
2019-02-16T20:02:54.975Z,4.60
2019-02-16T20:04:58.256Z,4.60
2019-02-16T20:07:18.036Z,4.40
2019-02-16T20:09:30.258Z,4.30
2019-02-16T20:11:36.407Z,4.30
2019-02-16T20:13:56.446Z,4.20
2019-02-16T20:15:59.765Z,4.10
2019-02-16T20:18:05.745Z,4.00
2019-02-16T20:20:11.945Z,4.00
2019-02-16T20:22:27.249Z,4.00
2019-02-16T20:24:42.805Z,3.90
2019-02-16T20:26:46.069Z,3.90
2019-02-16T20:29:06.085Z,3.90
2019-02-16T20:31:15.281Z,3.90
2019-02-16T20:33:27.281Z,3.80
2019-02-16T20:35:33.177Z,3.80
2019-02-16T20:37:39.717Z,3.70
2019-02-16T20:39:58.313Z,3.70
2019-02-16T20:42:18.377Z,3.70
2019-02-16T20:44:40.071Z,3.60
2019-02-16T20:46:43.345Z,3.60
2019-02-16T20:48:49.341Z,3.50
2019-02-16T20:50:58.525Z,3.50
2019-02-16T20:53:13.793Z,3.40
2019-02-16T20:55:23.009Z,3.40
2019-02-16T20:57:26.280Z,3.40
2019-02-16T20:59:32.268Z,3.40
2019-02-16T21:01:50.631Z,3.30
2019-02-16T21:04:02.735Z,3.30
2019-02-16T21:06:11.732Z,3.20
2019-02-16T21:08:20.838Z,3.20
2019-02-16T21:10:30.210Z,3.10
2019-02-16T21:12:39.607Z,3.00
2019-02-16T21:17:42.968Z,2.90
2019-02-16T21:23:34.504Z,2.80
2019-02-16T21:26:15.647Z,2.80
2019-02-16T21:31:45.753Z,2.70
2019-02-16T21:37:09.668Z,2.70
2019-02-16T21:42:40.165Z,2.60
2019-02-16T21:45:14.481Z,2.60
2019-02-16T21:47:55.617Z,2.50
2019-02-16T21:50:36.813Z,2.50
2019-02-16T21:53:21.334Z,2.30
2019-02-16T22:01:41.114Z,2.20
2019-02-16T22:04:22.252Z,2.20
2019-02-16T22:07:05.341Z,2.10
2019-02-16T22:09:26.611Z,2.10
2019-02-16T22:12:06.771Z,2.10
2019-02-16T22:14:23.014Z,2.10
2019-02-16T22:16:24.398Z,2.00
2019-02-16T22:18:25.783Z,2.00
2019-02-16T22:20:27.211Z,2.00
2019-02-16T22:22:28.581Z,1.90
2019-02-16T22:24:29.967Z,1.90
2019-02-16T22:26:31.664Z,1.80
2019-02-16T22:28:33.042Z,1.80
2019-02-16T22:30:34.466Z,1.70
2019-02-16T22:32:35.869Z,1.70
2019-02-16T22:34:39.136Z,1.60
2019-02-16T22:36:40.591Z,1.60
2019-02-16T22:38:43.852Z,1.60
2019-02-16T22:40:45.376Z,1.60
2019-02-16T22:42:46.756Z,1.50
2019-02-16T22:44:48.704Z,1.50
2019-02-16T22:46:50.133Z,1.50
2019-02-16T22:48:51.514Z,1.40
2019-02-16T22:50:52.949Z,1.40
2019-02-16T22:52:55.240Z,1.40
2019-02-16T22:54:56.595Z,1.40
2019-02-16T22:56:59.626Z,1.30
2019-02-16T22:59:01.183Z,1.30
2019-02-16T23:01:04.869Z,1.30
2019-02-16T23:03:06.537Z,1.30
2019-02-16T23:05:07.969Z,1.30
2019-02-16T23:07:09.384Z,1.40
2019-02-16T23:09:12.814Z,1.40
2019-02-16T23:11:14.176Z,1.30
2019-02-16T23:13:15.647Z,1.30
2019-02-16T23:15:17.059Z,1.30
2019-02-16T23:17:18.436Z,1.20
2019-02-16T23:19:19.939Z,1.20
2019-02-16T23:21:21.698Z,1.10
2019-02-16T23:23:23.034Z,1.10
2019-02-16T23:25:24.474Z,1.00
2019-02-16T23:27:25.832Z,1.00
2019-02-16T23:29:27.204Z,1.00
2019-02-16T23:31:28.622Z,1.00
2019-02-16T23:33:29.996Z,1.10
2019-02-16T23:35:31.370Z,1.10
2019-02-16T23:37:32.797Z,1.10
2019-02-16T23:39:34.168Z,1.10
2019-02-16T23:41:35.667Z,1.00
2019-02-16T23:43:37.043Z,1.00
2019-02-16T23:45:38.473Z,1.00
2019-02-16T23:47:41.741Z,0.90
2019-02-16T23:49:43.125Z,0.90
2019-02-16T23:51:44.533Z,0.90
2019-02-16T23:53:46.001Z,0.80
2019-02-16T23:55:47.336Z,0.80
2019-02-16T23:57:51.842Z,0.70
2019-02-16T23:59:53.250Z,0.70
